Strona główna
METAR-TAF:

METAR-TAF

Lotnisko :

Port lotniczy Dakar

Dakar, Senegal

Szerokość geograficzna: 14-44N, Długość geograficzna: 017-30W, wysokość: 27 m

Aktualna obserwacja pogody

Raport powstał 23 minut temu, godzina 19:00 UTC
Wiatr 4 kt od północno-północny zachód
Temperatura 28°C
Wilgotność 74%
Ciśnienie 1014 hPa
Widzialność 10 km lub więcej
Mało chmury na wysokości 1300 ft

METAR: GOOY 171900Z 34004KT 9999 FEW013 28/23 Q1014

czas: 19:23 (19:23 UTC)

Prognoza

Raport powstał 2 godziny i 2 minut temu, godzina 17:21 UTC
Prognoza ważna od 17 godzina 18 UTC do 18 godzina 24 UTC
Wiatr 8 kt od zachód
Widzialność 10 km lub więcej
Rozproszone chmury na wysokości 1300 ft

TAF: GOOY 171721Z 1718/1824 26008KT 9999 SCT013

Obserwacja i prognoza pogody dla ponad 4000 lotnisk (raport METAR i TAF).

Dostępne stacje oznaczono żółtymi i czerwonymi punktami na mapie.

Najedź kursorem aby zobaczyć nazwę stacji.

Kliknij aby zobaczyć obserwacje i prognozy pogody.

Aby zmienić mapę: kliknij na zielony przycisk z czarnym krzyżykiem, aby powiększyć; na zielony przycisk z myślnikiem, aby pomniejszyć; na zielone strzałki, aby przejść do map sąsiednich.


METAR-TAF: